sensor_id;sensor_type;location;lat;lon;timestamp;pressure;altitude;pressure_sealevel;temperature;humidity
37710;BME280;60223;34.854;-92.408;2023-04-07T00:03:54;101663.55;;;21.66;34.53
37710;BME280;60223;34.854;-92.408;2023-04-07T00:06:18;101678.87;;;21.66;34.56
37710;BME280;60223;34.854;-92.408;2023-04-07T00:08:45;101686.35;;;21.87;34.46
37710;BME280;60223;34.854;-92.408;2023-04-07T00:11:11;101693.25;;;21.75;34.69
37710;BME280;60223;34.854;-92.408;2023-04-07T00:13:37;101699.26;;;21.89;34.25
37710;BME280;60223;34.854;-92.408;2023-04-07T00:16:00;101700.10;;;21.91;34.73
37710;BME280;60223;34.854;-92.408;2023-04-07T00:18:28;101708.05;;;21.97;34.36
37710;BME280;60223;34.854;-92.408;2023-04-07T00:20:54;101709.24;;;21.60;34.48
37710;BME280;60223;34.854;-92.408;2023-04-07T00:23:20;101703.19;;;21.77;34.27
37710;BME280;60223;34.854;-92.408;2023-04-07T00:25:42;101698.85;;;21.54;34.49
37710;BME280;60223;34.854;-92.408;2023-04-07T00:28:11;101693.59;;;21.19;34.86
37710;BME280;60223;34.854;-92.408;2023-04-07T00:30:36;101680.00;;;21.85;34.21
37710;BME280;60223;34.854;-92.408;2023-04-07T00:33:03;101672.25;;;21.72;34.23
37710;BME280;60223;34.854;-92.408;2023-04-07T00:35:29;101665.53;;;21.93;34.72
37710;BME280;60223;34.854;-92.408;2023-04-07T00:37:54;101649.90;;;22.40;33.35
37710;BME280;60223;34.854;-92.408;2023-04-07T00:40:20;101640.60;;;22.34;33.19
37710;BME280;60223;34.854;-92.408;2023-04-07T00:42:45;101646.65;;;22.74;34.33
37710;BME280;60223;34.854;-92.408;2023-04-07T00:45:12;101665.56;;;22.60;33.62
37710;BME280;60223;34.854;-92.408;2023-04-07T00:47:37;101680.15;;;22.62;33.48
37710;BME280;60223;34.854;-92.408;2023-04-07T00:50:02;101683.72;;;22.70;33.80
37710;BME280;60223;34.854;-92.408;2023-04-07T00:52:27;101682.53;;;23.01;33.84
37710;BME280;60223;34.854;-92.408;2023-04-07T00:54:54;101678.35;;;22.98;33.69
37710;BME280;60223;34.854;-92.408;2023-04-07T00:57:17;101681.88;;;23.24;33.50
37710;BME280;60223;34.854;-92.408;2023-04-07T00:59:45;101690.70;;;22.73;34.23
37710;BME280;60223;34.854;-92.408;2023-04-07T01:02:14;101683.42;;;23.19;33.83
37710;BME280;60223;34.854;-92.408;2023-04-07T01:04:42;101685.56;;;22.82;34.26
37710;BME280;60223;34.854;-92.408;2023-04-07T01:07:04;101678.23;;;23.10;33.69
37710;BME280;60223;34.854;-92.408;2023-04-07T01:09:36;101660.33;;;23.00;33.64
37710;BME280;60223;34.854;-92.408;2023-04-07T01:11:58;101663.22;;;22.89;34.01
37710;BME280;60223;34.854;-92.408;2023-04-07T01:14:21;101700.18;;;22.88;34.05
37710;BME280;60223;34.854;-92.408;2023-04-07T01:16:48;101715.26;;;23.45;33.71
37710;BME280;60223;34.854;-92.408;2023-04-07T01:19:32;101696.61;;;23.57;33.68
37710;BME280;60223;34.854;-92.408;2023-04-07T01:21:38;101693.73;;;23.10;34.27
37710;BME280;60223;34.854;-92.408;2023-04-07T01:24:21;101696.32;;;22.99;34.42
37710;BME280;60223;34.854;-92.408;2023-04-07T01:26:30;101680.08;;;23.35;33.87
37710;BME280;60223;34.854;-92.408;2023-04-07T01:31:19;101668.79;;;23.04;34.16
37710;BME280;60223;34.854;-92.408;2023-04-07T01:33:47;101662.31;;;23.27;33.86
37710;BME280;60223;34.854;-92.408;2023-04-07T01:36:12;101648.80;;;23.53;33.64
37710;BME280;60223;34.854;-92.408;2023-04-07T01:38:36;101651.07;;;23.06;34.06
37710;BME280;60223;34.854;-92.408;2023-04-07T01:41:02;101670.70;;;23.00;34.02
37710;BME280;60223;34.854;-92.408;2023-04-07T01:43:29;101674.83;;;22.98;34.30
37710;BME280;60223;34.854;-92.408;2023-04-07T01:45:55;101674.84;;;23.23;33.93
37710;BME280;60223;34.854;-92.408;2023-04-07T01:48:20;101695.06;;;23.27;33.91
37710;BME280;60223;34.854;-92.408;2023-04-07T01:50:45;101701.71;;;22.69;34.29
37710;BME280;60223;34.854;-92.408;2023-04-07T01:53:10;101689.62;;;22.88;34.33
37710;BME280;60223;34.854;-92.408;2023-04-07T01:55:37;101704.71;;;22.79;34.11
37710;BME280;60223;34.854;-92.408;2023-04-07T01:58:07;101697.70;;;22.54;34.04
37710;BME280;60223;34.854;-92.408;2023-04-07T02:00:28;101686.72;;;23.10;34.00
37710;BME280;60223;34.854;-92.408;2023-04-07T02:02:58;101666.67;;;23.43;33.57
37710;BME280;60223;34.854;-92.408;2023-04-07T02:05:20;101644.28;;;22.98;33.93
37710;BME280;60223;34.854;-92.408;2023-04-07T02:07:49;101667.47;;;22.71;33.96
37710;BME280;60223;34.854;-92.408;2023-04-07T02:10:10;101694.55;;;23.21;33.61
37710;BME280;60223;34.854;-92.408;2023-04-07T02:12:37;101681.69;;;22.88;33.93
37710;BME280;60223;34.854;-92.408;2023-04-07T02:15:03;101697.00;;;23.12;33.64
37710;BME280;60223;34.854;-92.408;2023-04-07T02:17:30;101703.58;;;23.01;33.80
37710;BME280;60223;34.854;-92.408;2023-04-07T02:19:55;101696.62;;;23.26;33.86
37710;BME280;60223;34.854;-92.408;2023-04-07T02:22:20;101704.22;;;22.82;34.15
37710;BME280;60223;34.854;-92.408;2023-04-07T02:24:45;101711.55;;;22.98;33.96
37710;BME280;60223;34.854;-92.408;2023-04-07T02:27:11;101724.55;;;22.85;34.10
37710;BME280;60223;34.854;-92.408;2023-04-07T02:29:37;101734.93;;;22.37;34.10
37710;BME280;60223;34.854;-92.408;2023-04-07T02:32:01;101720.64;;;22.74;34.15
37710;BME280;60223;34.854;-92.408;2023-04-07T02:34:25;101718.60;;;22.72;34.08
37710;BME280;60223;34.854;-92.408;2023-04-07T02:36:54;101721.16;;;23.04;34.09
37710;BME280;60223;34.854;-92.408;2023-04-07T02:39:20;101729.47;;;22.57;34.30
37710;BME280;60223;34.854;-92.408;2023-04-07T02:41:46;101726.95;;;22.66;34.30
37710;BME280;60223;34.854;-92.408;2023-04-07T02:44:10;101712.88;;;22.55;34.39
37710;BME280;60223;34.854;-92.408;2023-04-07T02:46:37;101704.48;;;22.38;34.13
37710;BME280;60223;34.854;-92.408;2023-04-07T02:49:03;101714.01;;;22.82;34.01
37710;BME280;60223;34.854;-92.408;2023-04-07T02:51:29;101728.25;;;22.46;34.50
37710;BME280;60223;34.854;-92.408;2023-04-07T02:53:54;101733.96;;;22.62;34.12
37710;BME280;60223;34.854;-92.408;2023-04-07T02:56:20;101736.41;;;22.41;34.36
37710;BME280;60223;34.854;-92.408;2023-04-07T02:58:44;101736.60;;;22.47;34.39
37710;BME280;60223;34.854;-92.408;2023-04-07T03:01:11;101736.15;;;22.68;34.18
37710;BME280;60223;34.854;-92.408;2023-04-07T03:03:37;101736.43;;;22.53;34.34
37710;BME280;60223;34.854;-92.408;2023-04-07T03:06:03;101746.05;;;22.74;33.98
37710;BME280;60223;34.854;-92.408;2023-04-07T03:08:29;101766.43;;;22.43;34.34
37710;BME280;60223;34.854;-92.408;2023-04-07T03:10:54;101788.13;;;22.48;34.29
37710;BME280;60223;34.854;-92.408;2023-04-07T03:13:20;101792.23;;;22.43;34.25
37710;BME280;60223;34.854;-92.408;2023-04-07T03:15:43;101778.55;;;22.29;34.40
37710;BME280;60223;34.854;-92.408;2023-04-07T03:18:11;101779.86;;;22.73;34.18
37710;BME280;60223;34.854;-92.408;2023-04-07T03:20:37;101787.97;;;22.43;34.27
37710;BME280;60223;34.854;-92.408;2023-04-07T03:23:03;101789.32;;;22.14;34.27
37710;BME280;60223;34.854;-92.408;2023-04-07T03:25:29;101789.41;;;22.40;34.14
37710;BME280;60223;34.854;-92.408;2023-04-07T03:27:53;101803.29;;;22.50;34.12
37710;BME280;60223;34.854;-92.408;2023-04-07T03:30:20;101797.40;;;22.40;34.17
37710;BME280;60223;34.854;-92.408;2023-04-07T03:32:46;101776.36;;;22.33;34.28
37710;BME280;60223;34.854;-92.408;2023-04-07T03:35:11;101764.35;;;22.04;34.15
37710;BME280;60223;34.854;-92.408;2023-04-07T03:37:37;101744.06;;;22.21;34.20
37710;BME280;60223;34.854;-92.408;2023-04-07T03:40:02;101730.00;;;22.32;34.12
37710;BME280;60223;34.854;-92.408;2023-04-07T03:42:29;101741.77;;;22.15;34.29
37710;BME280;60223;34.854;-92.408;2023-04-07T03:44:54;101754.62;;;22.54;33.91
37710;BME280;60223;34.854;-92.408;2023-04-07T03:47:20;101754.34;;;23.02;33.79
37710;BME280;60223;34.854;-92.408;2023-04-07T03:49:46;101760.80;;;22.72;33.63
37710;BME280;60223;34.854;-92.408;2023-04-07T03:52:11;101770.74;;;22.29;34.03
37710;BME280;60223;34.854;-92.408;2023-04-07T03:54:37;101765.74;;;22.34;33.97
37710;BME280;60223;34.854;-92.408;2023-04-07T03:57:03;101765.53;;;22.59;34.25
37710;BME280;60223;34.854;-92.408;2023-04-07T03:59:30;101768.32;;;22.15;34.06
37710;BME280;60223;34.854;-92.408;2023-04-07T04:01:54;101763.62;;;22.23;34.14
37710;BME280;60223;34.854;-92.408;2023-04-07T04:04:20;101757.95;;;22.04;34.21
37710;BME280;60223;34.854;-92.408;2023-04-07T04:06:46;101764.84;;;22.05;34.21
37710;BME280;60223;34.854;-92.408;2023-04-07T04:09:09;101776.73;;;22.29;33.96
37710;BME280;60223;34.854;-92.408;2023-04-07T04:11:37;101781.78;;;22.20;34.27
37710;BME280;60223;34.854;-92.408;2023-04-07T04:14:03;101784.74;;;22.11;34.15
37710;BME280;60223;34.854;-92.408;2023-04-07T04:16:27;101778.14;;;22.03;34.18
37710;BME280;60223;34.854;-92.408;2023-04-07T04:18:54;101766.55;;;22.21;34.28
37710;BME280;60223;34.854;-92.408;2023-04-07T04:21:20;101761.18;;;22.43;34.20
37710;BME280;60223;34.854;-92.408;2023-04-07T04:23:46;101773.52;;;22.10;34.05
37710;BME280;60223;34.854;-92.408;2023-04-07T04:26:11;101790.86;;;22.09;34.09
37710;BME280;60223;34.854;-92.408;2023-04-07T04:28:36;101791.56;;;22.05;34.09
37710;BME280;60223;34.854;-92.408;2023-04-07T04:31:03;101781.72;;;21.84;34.31
37710;BME280;60223;34.854;-92.408;2023-04-07T04:33:29;101775.66;;;21.86;34.30
37710;BME280;60223;34.854;-92.408;2023-04-07T04:35:54;101766.38;;;22.22;34.11
37710;BME280;60223;34.854;-92.408;2023-04-07T04:38:20;101765.78;;;22.24;34.06
37710;BME280;60223;34.854;-92.408;2023-04-07T04:40:46;101778.36;;;22.01;34.30
37710;BME280;60223;34.854;-92.408;2023-04-07T04:43:12;101786.44;;;21.87;34.23
37710;BME280;60223;34.854;-92.408;2023-04-07T04:45:37;101787.32;;;21.74;34.41
37710;BME280;60223;34.854;-92.408;2023-04-07T04:48:03;101794.39;;;22.11;34.19
37710;BME280;60223;34.854;-92.408;2023-04-07T04:50:29;101796.50;;;22.03;34.26
37710;BME280;60223;34.854;-92.408;2023-04-07T04:52:53;101795.69;;;21.71;34.34
37710;BME280;60223;34.854;-92.408;2023-04-07T04:55:21;101791.47;;;22.24;34.06
37710;BME280;60223;34.854;-92.408;2023-04-07T04:57:45;101790.86;;;21.69;34.34
37710;BME280;60223;34.854;-92.408;2023-04-07T05:00:12;101786.11;;;21.82;34.19
37710;BME280;60223;34.854;-92.408;2023-04-07T05:02:37;101776.41;;;22.03;33.88
37710;BME280;60223;34.854;-92.408;2023-04-07T05:05:01;101774.29;;;21.74;34.20
37710;BME280;60223;34.854;-92.408;2023-04-07T05:07:29;101782.92;;;21.88;34.08
37710;BME280;60223;34.854;-92.408;2023-04-07T05:09:54;101787.92;;;22.18;33.77
37710;BME280;60223;34.854;-92.408;2023-04-07T05:12:20;101787.40;;;22.46;33.89
37710;BME280;60223;34.854;-92.408;2023-04-07T05:14:46;101790.90;;;22.11;33.97
37710;BME280;60223;34.854;-92.408;2023-04-07T05:17:10;101791.80;;;22.35;33.97
37710;BME280;60223;34.854;-92.408;2023-04-07T05:19:36;101790.79;;;22.12;33.67
37710;BME280;60223;34.854;-92.408;2023-04-07T05:22:03;101790.62;;;22.09;33.72
37710;BME280;60223;34.854;-92.408;2023-04-07T05:24:40;101779.84;;;21.86;33.89
37710;BME280;60223;34.854;-92.408;2023-04-07T05:26:54;101770.25;;;22.40;33.55
37710;BME280;60223;34.854;-92.408;2023-04-07T05:29:20;101767.06;;;22.51;33.71
37710;BME280;60223;34.854;-92.408;2023-04-07T05:31:43;101766.91;;;21.69;34.09
37710;BME280;60223;34.854;-92.408;2023-04-07T05:34:27;101760.39;;;22.04;33.77
37710;BME280;60223;34.854;-92.408;2023-04-07T05:36:38;101765.51;;;21.94;33.77
37710;BME280;60223;34.854;-92.408;2023-04-07T05:39:03;101768.12;;;21.74;34.00
37710;BME280;60223;34.854;-92.408;2023-04-07T05:41:29;101765.64;;;21.90;34.07
37710;BME280;60223;34.854;-92.408;2023-04-07T05:43:54;101767.38;;;21.94;33.82
37710;BME280;60223;34.854;-92.408;2023-04-07T05:46:19;101762.96;;;22.16;33.78
37710;BME280;60223;34.854;-92.408;2023-04-07T05:48:45;101753.93;;;22.74;33.33
37710;BME280;60223;34.854;-92.408;2023-04-07T05:51:11;101746.92;;;22.12;33.94
37710;BME280;60223;34.854;-92.408;2023-04-07T05:53:36;101747.14;;;22.08;33.79
37710;BME280;60223;34.854;-92.408;2023-04-07T05:56:03;101746.51;;;21.80;33.72
37710;BME280;60223;34.854;-92.408;2023-04-07T05:58:29;101741.49;;;22.32;33.40
37710;BME280;60223;34.854;-92.408;2023-04-07T06:00:54;101736.60;;;22.25;33.75
37710;BME280;60223;34.854;-92.408;2023-04-07T06:03:20;101739.70;;;22.61;33.39
37710;BME280;60223;34.854;-92.408;2023-04-07T06:05:49;101744.96;;;21.89;33.65
37710;BME280;60223;34.854;-92.408;2023-04-07T06:08:09;101746.86;;;21.86;33.69
37710;BME280;60223;34.854;-92.408;2023-04-07T06:10:37;101750.66;;;21.94;33.48
37710;BME280;60223;34.854;-92.408;2023-04-07T06:13:01;101756.45;;;21.78;33.65
37710;BME280;60223;34.854;-92.408;2023-04-07T06:15:29;101750.15;;;22.07;33.81
37710;BME280;60223;34.854;-92.408;2023-04-07T06:17:55;101748.48;;;22.20;33.27
37710;BME280;60223;34.854;-92.408;2023-04-07T06:20:20;101748.75;;;21.86;33.80
37710;BME280;60223;34.854;-92.408;2023-04-07T06:22:46;101747.49;;;22.05;33.84
37710;BME280;60223;34.854;-92.408;2023-04-07T06:25:12;101748.10;;;21.98;33.89
37710;BME280;60223;34.854;-92.408;2023-04-07T06:27:38;101739.26;;;21.69;33.65
37710;BME280;60223;34.854;-92.408;2023-04-07T06:30:02;101733.28;;;21.36;33.85
37710;BME280;60223;34.854;-92.408;2023-04-07T06:32:29;101729.54;;;22.14;33.62
37710;BME280;60223;34.854;-92.408;2023-04-07T06:34:55;101732.90;;;21.65;33.66
37710;BME280;60223;34.854;-92.408;2023-04-07T06:37:20;101729.15;;;22.02;33.78
37710;BME280;60223;34.854;-92.408;2023-04-07T06:39:54;101729.00;;;21.91;33.34
37710;BME280;60223;34.854;-92.408;2023-04-07T06:42:12;101724.42;;;22.15;33.47
37710;BME280;60223;34.854;-92.408;2023-04-07T06:44:38;101723.19;;;21.52;33.70
37710;BME280;60223;34.854;-92.408;2023-04-07T06:47:02;101725.08;;;21.75;33.41
37710;BME280;60223;34.854;-92.408;2023-04-07T06:49:29;101719.28;;;22.17;33.15
37710;BME280;60223;34.854;-92.408;2023-04-07T06:52:10;101709.74;;;21.84;33.61
37710;BME280;60223;34.854;-92.408;2023-04-07T06:54:20;101707.53;;;22.29;33.22
37710;BME280;60223;34.854;-92.408;2023-04-07T06:56:46;101703.15;;;20.75;34.39
37710;BME280;60223;34.854;-92.408;2023-04-07T06:59:12;101706.14;;;21.58;33.71
37710;BME280;60223;34.854;-92.408;2023-04-07T07:01:37;101711.92;;;21.84;33.74
37710;BME280;60223;34.854;-92.408;2023-04-07T07:04:03;101719.70;;;22.41;33.09
37710;BME280;60223;34.854;-92.408;2023-04-07T07:06:29;101733.89;;;22.18;33.36
37710;BME280;60223;34.854;-92.408;2023-04-07T07:08:55;101740.70;;;21.50;33.51
37710;BME280;60223;34.854;-92.408;2023-04-07T07:11:19;101735.47;;;21.84;33.31
37710;BME280;60223;34.854;-92.408;2023-04-07T07:13:46;101722.78;;;21.74;33.56
37710;BME280;60223;34.854;-92.408;2023-04-07T07:16:12;101715.98;;;21.97;33.48
37710;BME280;60223;34.854;-92.408;2023-04-07T07:18:38;101700.48;;;21.64;33.87
37710;BME280;60223;34.854;-92.408;2023-04-07T07:21:04;101697.05;;;22.03;33.51
37710;BME280;60223;34.854;-92.408;2023-04-07T07:23:28;101696.54;;;21.50;33.53
37710;BME280;60223;34.854;-92.408;2023-04-07T07:25:56;101699.63;;;22.14;33.10
37710;BME280;60223;34.854;-92.408;2023-04-07T07:28:21;101708.52;;;21.38;33.57
37710;BME280;60223;34.854;-92.408;2023-04-07T07:30:47;101715.41;;;21.77;33.60
37710;BME280;60223;34.854;-92.408;2023-04-07T07:33:11;101714.92;;;22.05;33.31
37710;BME280;60223;34.854;-92.408;2023-04-07T07:35:38;101713.19;;;21.73;33.39
37710;BME280;60223;34.854;-92.408;2023-04-07T07:38:04;101714.86;;;22.00;33.32
37710;BME280;60223;34.854;-92.408;2023-04-07T07:40:29;101713.51;;;21.84;33.48
37710;BME280;60223;34.854;-92.408;2023-04-07T07:42:53;101718.99;;;22.00;33.24
37710;BME280;60223;34.854;-92.408;2023-04-07T07:45:21;101721.38;;;22.02;33.27
37710;BME280;60223;34.854;-92.408;2023-04-07T07:47:47;101722.14;;;22.21;32.97
37710;BME280;60223;34.854;-92.408;2023-04-07T07:50:13;101715.71;;;21.45;33.63
37710;BME280;60223;34.854;-92.408;2023-04-07T07:52:37;101716.05;;;21.47;33.57
37710;BME280;60223;34.854;-92.408;2023-04-07T07:55:04;101717.30;;;22.23;32.93
37710;BME280;60223;34.854;-92.408;2023-04-07T07:57:29;101709.22;;;21.61;33.29
37710;BME280;60223;34.854;-92.408;2023-04-07T07:59:55;101703.35;;;21.46;33.26
37710;BME280;60223;34.854;-92.408;2023-04-07T08:02:20;101698.29;;;21.86;32.95
37710;BME280;60223;34.854;-92.408;2023-04-07T08:04:47;101685.24;;;21.52;33.70
37710;BME280;60223;34.854;-92.408;2023-04-07T08:07:12;101672.03;;;22.03;32.87
37710;BME280;60223;34.854;-92.408;2023-04-07T08:09:38;101664.17;;;20.92;33.74
37710;BME280;60223;34.854;-92.408;2023-04-07T08:12:03;101672.90;;;21.88;33.16
37710;BME280;60223;34.854;-92.408;2023-04-07T08:14:30;101670.29;;;21.47;33.39
37710;BME280;60223;34.854;-92.408;2023-04-07T08:16:56;101667.42;;;21.51;33.68
37710;BME280;60223;34.854;-92.408;2023-04-07T08:19:21;101668.76;;;21.09;33.54
37710;BME280;60223;34.854;-92.408;2023-04-07T08:21:47;101671.97;;;21.54;33.37
37710;BME280;60223;34.854;-92.408;2023-04-07T08:24:13;101671.74;;;20.80;34.10
37710;BME280;60223;34.854;-92.408;2023-04-07T08:26:37;101671.67;;;21.41;33.61
37710;BME280;60223;34.854;-92.408;2023-04-07T08:29:04;101669.57;;;21.15;33.94
37710;BME280;60223;34.854;-92.408;2023-04-07T08:31:30;101675.38;;;21.07;34.03
37710;BME280;60223;34.854;-92.408;2023-04-07T08:33:56;101682.45;;;21.27;33.84
37710;BME280;60223;34.854;-92.408;2023-04-07T08:36:21;101681.56;;;21.43;33.63
37710;BME280;60223;34.854;-92.408;2023-04-07T08:38:45;101676.64;;;21.62;33.37
37710;BME280;60223;34.854;-92.408;2023-04-07T08:41:16;101668.24;;;20.49;34.29
37710;BME280;60223;34.854;-92.408;2023-04-07T08:43:39;101665.33;;;21.01;34.10
37710;BME280;60223;34.854;-92.408;2023-04-07T08:46:05;101670.59;;;20.61;34.14
37710;BME280;60223;34.854;-92.408;2023-04-07T08:48:30;101680.34;;;21.18;33.87
37710;BME280;60223;34.854;-92.408;2023-04-07T08:50:56;101695.29;;;21.35;33.68
37710;BME280;60223;34.854;-92.408;2023-04-07T08:53:27;101699.33;;;21.60;33.61
37710;BME280;60223;34.854;-92.408;2023-04-07T08:55:47;101701.44;;;20.84;34.63
37710;BME280;60223;34.854;-92.408;2023-04-07T08:58:12;101710.20;;;20.90;33.87
37710;BME280;60223;34.854;-92.408;2023-04-07T09:00:39;101721.41;;;21.32;33.63
37710;BME280;60223;34.854;-92.408;2023-04-07T09:03:05;101722.31;;;20.84;34.25
37710;BME280;60223;34.854;-92.408;2023-04-07T09:05:30;101718.61;;;20.25;34.74
37710;BME280;60223;34.854;-92.408;2023-04-07T09:07:54;101707.61;;;20.43;34.62
37710;BME280;60223;34.854;-92.408;2023-04-07T09:10:22;101701.38;;;20.90;33.75
37710;BME280;60223;34.854;-92.408;2023-04-07T09:12:47;101700.71;;;21.56;33.30
37710;BME280;60223;34.854;-92.408;2023-04-07T09:15:13;101702.10;;;21.20;33.38
37710;BME280;60223;34.854;-92.408;2023-04-07T09:17:39;101706.77;;;20.58;34.17
37710;BME280;60223;34.854;-92.408;2023-04-07T09:20:05;101713.21;;;20.81;33.90
37710;BME280;60223;34.854;-92.408;2023-04-07T09:22:40;101719.34;;;20.31;34.72
37710;BME280;60223;34.854;-92.408;2023-04-07T09:25:07;101722.21;;;19.74;35.23
37710;BME280;60223;34.854;-92.408;2023-04-07T09:27:23;101728.93;;;20.36;34.62
37710;BME280;60223;34.854;-92.408;2023-04-07T09:29:46;101722.35;;;20.51;34.42
37710;BME280;60223;34.854;-92.408;2023-04-07T09:34:40;101713.43;;;21.35;33.70
37710;BME280;60223;34.854;-92.408;2023-04-07T09:37:03;101711.58;;;21.32;33.38
37710;BME280;60223;34.854;-92.408;2023-04-07T09:39:31;101707.52;;;19.92;35.08
37710;BME280;60223;34.854;-92.408;2023-04-07T09:41:57;101705.22;;;20.79;33.64
37710;BME280;60223;34.854;-92.408;2023-04-07T09:44:22;101708.65;;;20.18;34.64
37710;BME280;60223;34.854;-92.408;2023-04-07T09:46:52;101699.65;;;20.81;34.19
37710;BME280;60223;34.854;-92.408;2023-04-07T09:49:11;101696.96;;;21.36;33.26
37710;BME280;60223;34.854;-92.408;2023-04-07T09:51:39;101699.84;;;19.81;35.23
37710;BME280;60223;34.854;-92.408;2023-04-07T09:54:05;101705.25;;;20.72;34.01
37710;BME280;60223;34.854;-92.408;2023-04-07T09:56:31;101703.63;;;20.26;34.19
37710;BME280;60223;34.854;-92.408;2023-04-07T09:58:56;101693.24;;;20.38;34.39
37710;BME280;60223;34.854;-92.408;2023-04-07T10:01:21;101688.83;;;20.14;34.76
37710;BME280;60223;34.854;-92.408;2023-04-07T10:03:48;101677.50;;;20.27;34.54
37710;BME280;60223;34.854;-92.408;2023-04-07T10:06:13;101679.03;;;19.99;34.89
37710;BME280;60223;34.854;-92.408;2023-04-07T10:08:41;101669.67;;;20.25;34.49
37710;BME280;60223;34.854;-92.408;2023-04-07T10:11:06;101674.90;;;19.37;35.52
37710;BME280;60223;34.854;-92.408;2023-04-07T10:13:31;101668.00;;;19.75;35.48
37710;BME280;60223;34.854;-92.408;2023-04-07T10:15:56;101661.39;;;20.82;33.82
37710;BME280;60223;34.854;-92.408;2023-04-07T10:18:24;101653.02;;;20.36;34.33
37710;BME280;60223;34.854;-92.408;2023-04-07T10:20:48;101646.55;;;19.52;35.21
37710;BME280;60223;34.854;-92.408;2023-04-07T10:23:17;101639.80;;;19.75;35.06
37710;BME280;60223;34.854;-92.408;2023-04-07T10:25:42;101643.19;;;20.45;34.15
37710;BME280;60223;34.854;-92.408;2023-04-07T10:28:05;101654.22;;;20.42;34.21
37710;BME280;60223;34.854;-92.408;2023-04-07T10:30:32;101665.69;;;20.42;34.19
37710;BME280;60223;34.854;-92.408;2023-04-07T10:32:57;101674.83;;;20.37;34.53
37710;BME280;60223;34.854;-92.408;2023-04-07T10:35:22;101686.95;;;20.14;34.39
37710;BME280;60223;34.854;-92.408;2023-04-07T10:40:26;101689.32;;;21.12;33.39
37710;BME280;60223;34.854;-92.408;2023-04-07T10:42:45;101690.84;;;20.74;33.80
37710;BME280;60223;34.854;-92.408;2023-04-07T10:45:04;101688.11;;;20.42;34.06
37710;BME280;60223;34.854;-92.408;2023-04-07T10:47:31;101684.45;;;20.37;34.06
37710;BME280;60223;34.854;-92.408;2023-04-07T10:52:26;101696.70;;;20.97;33.73
37710;BME280;60223;34.854;-92.408;2023-04-07T10:54:47;101704.20;;;21.25;33.72
37710;BME280;60223;34.854;-92.408;2023-04-07T10:57:15;101703.04;;;21.46;33.37
37710;BME280;60223;34.854;-92.408;2023-04-07T10:59:41;101692.22;;;21.64;33.42
37710;BME280;60223;34.854;-92.408;2023-04-07T11:04:37;101659.05;;;22.05;33.44
37710;BME280;60223;34.854;-92.408;2023-04-07T11:06:56;101663.67;;;22.29;33.33
37710;BME280;60223;34.854;-92.408;2023-04-07T11:09:23;101676.22;;;22.11;33.63
37710;BME280;60223;34.854;-92.408;2023-04-07T11:11:48;101686.35;;;22.24;33.59
37710;BME280;60223;34.854;-92.408;2023-04-07T11:16:41;101674.77;;;22.22;33.11
37710;BME280;60223;34.854;-92.408;2023-04-07T11:19:06;101674.38;;;22.33;33.64
37710;BME280;60223;34.854;-92.408;2023-04-07T11:21:31;101681.45;;;22.28;33.74
37710;BME280;60223;34.854;-92.408;2023-04-07T11:23:57;101686.02;;;21.43;34.52
37710;BME280;60223;34.854;-92.408;2023-04-07T11:26:22;101692.92;;;21.55;34.30
37710;BME280;60223;34.854;-92.408;2023-04-07T11:28:49;101698.51;;;21.65;34.25
37710;BME280;60223;34.854;-92.408;2023-04-07T11:33:40;101698.64;;;22.60;33.77
37710;BME280;60223;34.854;-92.408;2023-04-07T11:36:06;101699.36;;;22.59;33.31
37710;BME280;60223;34.854;-92.408;2023-04-07T11:38:34;101698.23;;;22.08;33.55
37710;BME280;60223;34.854;-92.408;2023-04-07T11:41:08;101699.81;;;21.59;34.23
37710;BME280;60223;34.854;-92.408;2023-04-07T11:43:24;101703.08;;;21.71;34.48
37710;BME280;60223;34.854;-92.408;2023-04-07T11:50:42;101719.75;;;22.42;33.63
37710;BME280;60223;34.854;-92.408;2023-04-07T11:53:06;101724.24;;;22.50;33.38
37710;BME280;60223;34.854;-92.408;2023-04-07T11:55:32;101728.22;;;22.89;32.94
37710;BME280;60223;34.854;-92.408;2023-04-07T12:00:24;101739.95;;;22.59;32.88
37710;BME280;60223;34.854;-92.408;2023-04-07T12:02:49;101740.45;;;22.79;33.19
37710;BME280;60223;34.854;-92.408;2023-04-07T12:05:15;101745.30;;;22.53;33.23
37710;BME280;60223;34.854;-92.408;2023-04-07T12:07:38;101749.65;;;22.70;33.77
37710;BME280;60223;34.854;-92.408;2023-04-07T12:10:19;101742.52;;;22.53;33.40
37710;BME280;60223;34.854;-92.408;2023-04-07T12:12:32;101744.68;;;22.99;32.49
37710;BME280;60223;34.854;-92.408;2023-04-07T12:14:58;101752.80;;;22.87;31.63
37710;BME280;60223;34.854;-92.408;2023-04-07T12:17:24;101756.20;;;22.52;32.56
37710;BME280;60223;34.854;-92.408;2023-04-07T12:19:49;101769.55;;;22.87;32.86
37710;BME280;60223;34.854;-92.408;2023-04-07T12:22:15;101778.62;;;22.90;33.13
37710;BME280;60223;34.854;-92.408;2023-04-07T12:24:40;101791.85;;;22.63;32.78
37710;BME280;60223;34.854;-92.408;2023-04-07T12:27:05;101802.64;;;22.67;32.80
37710;BME280;60223;34.854;-92.408;2023-04-07T12:29:32;101802.22;;;22.59;32.11
37710;BME280;60223;34.854;-92.408;2023-04-07T12:31:57;101801.50;;;22.48;33.10
37710;BME280;60223;34.854;-92.408;2023-04-07T12:34:23;101805.55;;;22.71;31.83
37710;BME280;60223;34.854;-92.408;2023-04-07T12:36:47;101801.82;;;22.93;31.55
37710;BME280;60223;34.854;-92.408;2023-04-07T12:39:15;101806.14;;;23.31;30.68
37710;BME280;60223;34.854;-92.408;2023-04-07T12:41:40;101822.00;;;22.99;32.16
37710;BME280;60223;34.854;-92.408;2023-04-07T12:44:06;101831.65;;;22.51;33.14
37710;BME280;60223;34.854;-92.408;2023-04-07T12:46:32;101834.32;;;22.94;33.25
37710;BME280;60223;34.854;-92.408;2023-04-07T12:48:57;101832.86;;;22.72;33.06